sensor_id;sensor_type;location;lat;lon;timestamp;P1;durP1;ratioP1;P2;durP2;ratioP2
19535;SDS011;9913;51.168;4.124;2023-04-05T00:00:07;17.30;;;11.63;;
19535;SDS011;9913;51.168;4.124;2023-04-05T00:02:37;17.80;;;11.90;;
19535;SDS011;9913;51.168;4.124;2023-04-05T00:05:06;19.43;;;11.80;;
19535;SDS011;9913;51.168;4.124;2023-04-05T00:07:35;19.47;;;11.93;;
19535;SDS011;9913;51.168;4.124;2023-04-05T00:10:04;20.87;;;12.43;;
19535;SDS011;9913;51.168;4.124;2023-04-05T00:12:32;19.93;;;13.27;;
19535;SDS011;9913;51.168;4.124;2023-04-05T00:15:02;23.07;;;12.97;;
19535;SDS011;9913;51.168;4.124;2023-04-05T00:17:31;20.43;;;12.67;;
19535;SDS011;9913;51.168;4.124;2023-04-05T00:20:00;18.73;;;12.77;;
19535;SDS011;9913;51.168;4.124;2023-04-05T00:22:33;23.03;;;14.33;;
19535;SDS011;9913;51.168;4.124;2023-04-05T00:25:02;22.87;;;14.10;;
19535;SDS011;9913;51.168;4.124;2023-04-05T00:27:32;21.73;;;13.67;;
19535;SDS011;9913;51.168;4.124;2023-04-05T00:30:02;22.03;;;13.30;;
19535;SDS011;9913;51.168;4.124;2023-04-05T00:32:31;21.00;;;13.83;;
19535;SDS011;9913;51.168;4.124;2023-04-05T00:34:59;18.57;;;13.33;;
19535;SDS011;9913;51.168;4.124;2023-04-05T00:37:28;22.43;;;13.10;;
19535;SDS011;9913;51.168;4.124;2023-04-05T00:39:56;21.30;;;13.80;;
19535;SDS011;9913;51.168;4.124;2023-04-05T00:42:25;20.43;;;14.30;;
19535;SDS011;9913;51.168;4.124;2023-04-05T00:44:53;23.10;;;14.70;;
19535;SDS011;9913;51.168;4.124;2023-04-05T00:47:23;21.13;;;13.13;;
19535;SDS011;9913;51.168;4.124;2023-04-05T00:49:51;19.73;;;13.03;;
19535;SDS011;9913;51.168;4.124;2023-04-05T00:52:20;21.97;;;14.20;;
19535;SDS011;9913;51.168;4.124;2023-04-05T00:54:49;21.77;;;13.80;;
19535;SDS011;9913;51.168;4.124;2023-04-05T00:57:19;21.93;;;13.57;;
19535;SDS011;9913;51.168;4.124;2023-04-05T00:59:47;22.47;;;14.73;;
19535;SDS011;9913;51.168;4.124;2023-04-05T01:02:16;22.30;;;13.67;;
19535;SDS011;9913;51.168;4.124;2023-04-05T01:04:53;19.47;;;13.23;;
19535;SDS011;9913;51.168;4.124;2023-04-05T01:07:28;21.60;;;13.50;;
19535;SDS011;9913;51.168;4.124;2023-04-05T01:10:03;25.80;;;14.23;;
19535;SDS011;9913;51.168;4.124;2023-04-05T01:12:33;22.07;;;13.87;;
19535;SDS011;9913;51.168;4.124;2023-04-05T01:15:03;22.20;;;14.00;;
19535;SDS011;9913;51.168;4.124;2023-04-05T01:17:32;23.57;;;13.97;;
19535;SDS011;9913;51.168;4.124;2023-04-05T01:20:09;23.43;;;14.93;;
19535;SDS011;9913;51.168;4.124;2023-04-05T01:31:53;20.23;;;13.37;;
19535;SDS011;9913;51.168;4.124;2023-04-05T01:34:28;21.97;;;13.07;;
19535;SDS011;9913;51.168;4.124;2023-04-05T01:37:07;25.07;;;15.00;;
19535;SDS011;9913;51.168;4.124;2023-04-05T01:39:42;23.10;;;14.10;;
19535;SDS011;9913;51.168;4.124;2023-04-05T01:42:13;27.23;;;13.90;;
19535;SDS011;9913;51.168;4.124;2023-04-05T01:44:41;19.10;;;13.43;;
19535;SDS011;9913;51.168;4.124;2023-04-05T01:47:11;24.47;;;13.77;;
19535;SDS011;9913;51.168;4.124;2023-04-05T01:49:39;22.47;;;14.60;;
19535;SDS011;9913;51.168;4.124;2023-04-05T01:52:07;22.60;;;13.77;;
19535;SDS011;9913;51.168;4.124;2023-04-05T01:54:37;22.60;;;14.30;;
19535;SDS011;9913;51.168;4.124;2023-04-05T01:57:07;22.83;;;14.60;;
19535;SDS011;9913;51.168;4.124;2023-04-05T01:59:36;21.47;;;13.93;;
19535;SDS011;9913;51.168;4.124;2023-04-05T02:02:04;21.63;;;12.90;;
19535;SDS011;9913;51.168;4.124;2023-04-05T02:04:34;25.70;;;13.80;;
19535;SDS011;9913;51.168;4.124;2023-04-05T02:07:02;24.93;;;14.10;;
19535;SDS011;9913;51.168;4.124;2023-04-05T02:09:31;25.37;;;15.17;;
19535;SDS011;9913;51.168;4.124;2023-04-05T02:11:59;23.40;;;14.37;;
19535;SDS011;9913;51.168;4.124;2023-04-05T02:14:27;25.17;;;15.27;;
19535;SDS011;9913;51.168;4.124;2023-04-05T02:16:56;23.27;;;13.70;;
19535;SDS011;9913;51.168;4.124;2023-04-05T02:19:24;22.33;;;14.70;;
19535;SDS011;9913;51.168;4.124;2023-04-05T02:21:56;24.67;;;14.67;;
19535;SDS011;9913;51.168;4.124;2023-04-05T02:24:25;22.07;;;14.13;;
19535;SDS011;9913;51.168;4.124;2023-04-05T02:26:53;23.10;;;13.73;;
19535;SDS011;9913;51.168;4.124;2023-04-05T02:29:23;23.13;;;14.20;;
19535;SDS011;9913;51.168;4.124;2023-04-05T02:31:51;27.80;;;14.37;;
19535;SDS011;9913;51.168;4.124;2023-04-05T02:34:20;21.07;;;13.93;;
19535;SDS011;9913;51.168;4.124;2023-04-05T02:36:49;22.07;;;14.03;;
19535;SDS011;9913;51.168;4.124;2023-04-05T02:39:19;23.87;;;14.83;;
19535;SDS011;9913;51.168;4.124;2023-04-05T02:41:47;25.17;;;15.53;;
19535;SDS011;9913;51.168;4.124;2023-04-05T02:44:15;24.53;;;14.00;;
19535;SDS011;9913;51.168;4.124;2023-04-05T02:46:44;21.43;;;13.20;;
19535;SDS011;9913;51.168;4.124;2023-04-05T02:49:12;23.70;;;15.73;;
19535;SDS011;9913;51.168;4.124;2023-04-05T02:51:41;26.47;;;15.23;;
19535;SDS011;9913;51.168;4.124;2023-04-05T02:54:09;23.73;;;15.20;;
19535;SDS011;9913;51.168;4.124;2023-04-05T02:56:40;25.03;;;14.77;;
19535;SDS011;9913;51.168;4.124;2023-04-05T02:59:13;22.57;;;13.60;;
19535;SDS011;9913;51.168;4.124;2023-04-05T03:01:43;21.87;;;13.87;;
19535;SDS011;9913;51.168;4.124;2023-04-05T03:04:20;22.47;;;14.03;;
19535;SDS011;9913;51.168;4.124;2023-04-05T03:06:58;27.83;;;15.10;;
19535;SDS011;9913;51.168;4.124;2023-04-05T03:09:30;25.03;;;15.07;;
19535;SDS011;9913;51.168;4.124;2023-04-05T03:12:05;21.57;;;14.43;;
19535;SDS011;9913;51.168;4.124;2023-04-05T03:14:38;22.30;;;14.53;;
19535;SDS011;9913;51.168;4.124;2023-04-05T03:17:09;21.67;;;13.83;;
19535;SDS011;9913;51.168;4.124;2023-04-05T03:19:41;22.37;;;14.07;;
19535;SDS011;9913;51.168;4.124;2023-04-05T03:22:19;22.20;;;14.57;;
19535;SDS011;9913;51.168;4.124;2023-04-05T03:24:48;21.33;;;15.57;;
19535;SDS011;9913;51.168;4.124;2023-04-05T03:27:19;24.07;;;15.17;;
19535;SDS011;9913;51.168;4.124;2023-04-05T03:30:13;24.43;;;15.03;;
19535;SDS011;9913;51.168;4.124;2023-04-05T03:32:49;24.60;;;15.80;;
19535;SDS011;9913;51.168;4.124;2023-04-05T03:35:35;26.20;;;15.13;;
19535;SDS011;9913;51.168;4.124;2023-04-05T03:38:06;27.33;;;16.90;;
19535;SDS011;9913;51.168;4.124;2023-04-05T03:40:39;24.73;;;15.67;;
19535;SDS011;9913;51.168;4.124;2023-04-05T03:43:10;25.57;;;15.13;;
19535;SDS011;9913;51.168;4.124;2023-04-05T03:45:39;26.57;;;15.47;;
19535;SDS011;9913;51.168;4.124;2023-04-05T03:48:08;25.87;;;15.03;;
19535;SDS011;9913;51.168;4.124;2023-04-05T03:50:36;26.20;;;15.33;;
19535;SDS011;9913;51.168;4.124;2023-04-05T03:53:04;32.10;;;18.00;;
19535;SDS011;9913;51.168;4.124;2023-04-05T03:55:34;24.67;;;15.53;;
19535;SDS011;9913;51.168;4.124;2023-04-05T03:58:05;25.07;;;14.30;;
19535;SDS011;9913;51.168;4.124;2023-04-05T04:00:36;23.30;;;15.57;;
19535;SDS011;9913;51.168;4.124;2023-04-05T04:03:18;26.00;;;15.37;;
19535;SDS011;9913;51.168;4.124;2023-04-05T04:05:49;26.17;;;16.63;;
19535;SDS011;9913;51.168;4.124;2023-04-05T04:08:19;25.57;;;16.53;;
19535;SDS011;9913;51.168;4.124;2023-04-05T04:10:48;26.17;;;17.10;;
19535;SDS011;9913;51.168;4.124;2023-04-05T04:13:36;24.40;;;15.17;;
19535;SDS011;9913;51.168;4.124;2023-04-05T04:16:12;25.03;;;15.37;;
19535;SDS011;9913;51.168;4.124;2023-04-05T04:18:53;27.33;;;17.33;;
19535;SDS011;9913;51.168;4.124;2023-04-05T04:21:40;30.60;;;17.53;;
19535;SDS011;9913;51.168;4.124;2023-04-05T04:24:32;26.60;;;17.07;;
19535;SDS011;9913;51.168;4.124;2023-04-05T04:27:03;27.97;;;16.83;;
19535;SDS011;9913;51.168;4.124;2023-04-05T04:30:05;27.73;;;16.37;;
19535;SDS011;9913;51.168;4.124;2023-04-05T04:33:10;25.57;;;16.10;;
19535;SDS011;9913;51.168;4.124;2023-04-05T04:35:44;30.00;;;16.67;;
19535;SDS011;9913;51.168;4.124;2023-04-05T04:38:29;27.53;;;16.27;;
19535;SDS011;9913;51.168;4.124;2023-04-05T04:41:19;28.70;;;17.40;;
19535;SDS011;9913;51.168;4.124;2023-04-05T04:44:05;27.97;;;18.03;;
19535;SDS011;9913;51.168;4.124;2023-04-05T04:46:44;29.20;;;16.87;;
19535;SDS011;9913;51.168;4.124;2023-04-05T04:49:16;31.10;;;17.70;;
19535;SDS011;9913;51.168;4.124;2023-04-05T04:51:47;26.90;;;17.07;;
19535;SDS011;9913;51.168;4.124;2023-04-05T04:54:19;29.87;;;17.27;;
19535;SDS011;9913;51.168;4.124;2023-04-05T04:56:47;27.17;;;17.17;;
19535;SDS011;9913;51.168;4.124;2023-04-05T04:59:16;30.30;;;16.90;;
19535;SDS011;9913;51.168;4.124;2023-04-05T05:01:44;30.23;;;18.07;;
19535;SDS011;9913;51.168;4.124;2023-04-05T05:04:12;27.67;;;17.27;;
19535;SDS011;9913;51.168;4.124;2023-04-05T05:06:43;35.30;;;18.43;;
19535;SDS011;9913;51.168;4.124;2023-04-05T05:09:11;27.00;;;17.57;;
19535;SDS011;9913;51.168;4.124;2023-04-05T05:11:55;32.57;;;19.70;;
19535;SDS011;9913;51.168;4.124;2023-04-05T05:14:25;29.27;;;17.00;;
19535;SDS011;9913;51.168;4.124;2023-04-05T05:16:53;26.53;;;17.90;;
19535;SDS011;9913;51.168;4.124;2023-04-05T05:19:27;32.57;;;18.77;;
19535;SDS011;9913;51.168;4.124;2023-04-05T05:21:58;31.20;;;18.77;;
19535;SDS011;9913;51.168;4.124;2023-04-05T05:24:26;28.87;;;18.07;;
19535;SDS011;9913;51.168;4.124;2023-04-05T05:26:54;30.93;;;17.63;;
19535;SDS011;9913;51.168;4.124;2023-04-05T05:29:22;31.83;;;18.37;;
19535;SDS011;9913;51.168;4.124;2023-04-05T05:31:51;34.33;;;18.30;;
19535;SDS011;9913;51.168;4.124;2023-04-05T05:34:19;34.07;;;18.03;;
19535;SDS011;9913;51.168;4.124;2023-04-05T05:36:51;29.10;;;17.07;;
19535;SDS011;9913;51.168;4.124;2023-04-05T05:39:21;30.23;;;18.73;;
19535;SDS011;9913;51.168;4.124;2023-04-05T05:41:50;27.40;;;17.03;;
19535;SDS011;9913;51.168;4.124;2023-04-05T05:44:19;27.97;;;18.57;;
19535;SDS011;9913;51.168;4.124;2023-04-05T05:46:47;32.77;;;18.33;;
19535;SDS011;9913;51.168;4.124;2023-04-05T05:49:15;29.53;;;18.00;;
19535;SDS011;9913;51.168;4.124;2023-04-05T05:51:43;29.40;;;17.57;;
19535;SDS011;9913;51.168;4.124;2023-04-05T05:54:12;27.73;;;17.73;;
19535;SDS011;9913;51.168;4.124;2023-04-05T05:56:42;32.27;;;17.50;;
19535;SDS011;9913;51.168;4.124;2023-04-05T05:59:11;25.60;;;15.83;;
19535;SDS011;9913;51.168;4.124;2023-04-05T06:01:39;25.57;;;15.97;;
19535;SDS011;9913;51.168;4.124;2023-04-05T06:04:12;31.00;;;17.53;;
19535;SDS011;9913;51.168;4.124;2023-04-05T06:06:42;28.03;;;17.23;;
19535;SDS011;9913;51.168;4.124;2023-04-05T06:09:12;28.37;;;17.17;;
19535;SDS011;9913;51.168;4.124;2023-04-05T06:11:42;28.57;;;16.23;;
19535;SDS011;9913;51.168;4.124;2023-04-05T06:14:22;26.03;;;16.53;;
19535;SDS011;9913;51.168;4.124;2023-04-05T06:16:51;26.43;;;15.87;;
19535;SDS011;9913;51.168;4.124;2023-04-05T06:19:19;27.70;;;17.60;;
19535;SDS011;9913;51.168;4.124;2023-04-05T06:21:47;30.57;;;16.60;;
19535;SDS011;9913;51.168;4.124;2023-04-05T06:24:16;30.43;;;17.70;;
19535;SDS011;9913;51.168;4.124;2023-04-05T06:26:45;25.47;;;16.77;;
19535;SDS011;9913;51.168;4.124;2023-04-05T06:29:13;29.03;;;16.53;;
19535;SDS011;9913;51.168;4.124;2023-04-05T06:31:42;26.37;;;15.87;;
19535;SDS011;9913;51.168;4.124;2023-04-05T06:34:12;24.63;;;15.93;;
19535;SDS011;9913;51.168;4.124;2023-04-05T06:36:40;27.73;;;17.07;;
19535;SDS011;9913;51.168;4.124;2023-04-05T06:39:09;29.33;;;17.03;;
19535;SDS011;9913;51.168;4.124;2023-04-05T06:41:37;27.43;;;16.23;;
19535;SDS011;9913;51.168;4.124;2023-04-05T06:44:07;26.60;;;18.73;;
19535;SDS011;9913;51.168;4.124;2023-04-05T06:46:35;30.60;;;19.60;;
19535;SDS011;9913;51.168;4.124;2023-04-05T06:49:03;27.03;;;18.17;;
19535;SDS011;9913;51.168;4.124;2023-04-05T06:51:32;26.80;;;17.87;;
19535;SDS011;9913;51.168;4.124;2023-04-05T06:54:00;31.63;;;18.60;;
19535;SDS011;9913;51.168;4.124;2023-04-05T06:56:29;25.80;;;16.93;;
19535;SDS011;9913;51.168;4.124;2023-04-05T06:58:58;27.33;;;18.37;;
19535;SDS011;9913;51.168;4.124;2023-04-05T07:01:29;28.50;;;18.17;;
19535;SDS011;9913;51.168;4.124;2023-04-05T07:03:57;24.43;;;16.47;;
19535;SDS011;9913;51.168;4.124;2023-04-05T07:06:26;24.50;;;16.00;;
19535;SDS011;9913;51.168;4.124;2023-04-05T07:08:54;24.50;;;16.77;;
19535;SDS011;9913;51.168;4.124;2023-04-05T07:11:23;27.43;;;17.10;;
19535;SDS011;9913;51.168;4.124;2023-04-05T07:13:51;25.00;;;17.37;;
19535;SDS011;9913;51.168;4.124;2023-04-05T07:16:19;24.07;;;17.03;;
19535;SDS011;9913;51.168;4.124;2023-04-05T07:18:50;24.67;;;16.73;;
19535;SDS011;9913;51.168;4.124;2023-04-05T07:21:19;26.70;;;18.00;;
19535;SDS011;9913;51.168;4.124;2023-04-05T07:23:47;26.13;;;17.33;;
19535;SDS011;9913;51.168;4.124;2023-04-05T07:26:15;22.00;;;16.17;;
19535;SDS011;9913;51.168;4.124;2023-04-05T07:28:44;24.37;;;15.97;;
19535;SDS011;9913;51.168;4.124;2023-04-05T07:31:13;22.20;;;15.30;;
19535;SDS011;9913;51.168;4.124;2023-04-05T07:33:42;22.63;;;14.80;;
19535;SDS011;9913;51.168;4.124;2023-04-05T07:36:11;21.67;;;14.83;;
19535;SDS011;9913;51.168;4.124;2023-04-05T07:38:39;25.93;;;14.90;;
19535;SDS011;9913;51.168;4.124;2023-04-05T07:41:08;21.47;;;13.50;;
19535;SDS011;9913;51.168;4.124;2023-04-05T07:43:37;22.47;;;14.73;;
19535;SDS011;9913;51.168;4.124;2023-04-05T07:46:05;20.07;;;15.13;;
19535;SDS011;9913;51.168;4.124;2023-04-05T07:48:34;18.47;;;13.77;;
19535;SDS011;9913;51.168;4.124;2023-04-05T07:51:02;21.00;;;14.03;;
19535;SDS011;9913;51.168;4.124;2023-04-05T07:53:34;21.23;;;13.73;;
19535;SDS011;9913;51.168;4.124;2023-04-05T07:56:03;19.37;;;11.57;;
19535;SDS011;9913;51.168;4.124;2023-04-05T07:58:32;17.20;;;11.73;;
19535;SDS011;9913;51.168;4.124;2023-04-05T08:01:01;16.30;;;11.27;;
19535;SDS011;9913;51.168;4.124;2023-04-05T08:03:30;17.07;;;10.97;;
19535;SDS011;9913;51.168;4.124;2023-04-05T08:06:07;15.23;;;10.97;;
19535;SDS011;9913;51.168;4.124;2023-04-05T08:08:39;20.23;;;11.77;;
19535;SDS011;9913;51.168;4.124;2023-04-05T08:11:07;14.70;;;11.10;;
19535;SDS011;9913;51.168;4.124;2023-04-05T08:13:36;16.63;;;10.97;;
19535;SDS011;9913;51.168;4.124;2023-04-05T08:16:07;17.73;;;11.03;;
19535;SDS011;9913;51.168;4.124;2023-04-05T08:18:36;16.17;;;11.30;;
19535;SDS011;9913;51.168;4.124;2023-04-05T08:21:04;16.10;;;10.67;;
19535;SDS011;9913;51.168;4.124;2023-04-05T08:23:32;15.53;;;10.43;;
19535;SDS011;9913;51.168;4.124;2023-04-05T08:26:02;15.70;;;9.27;;
19535;SDS011;9913;51.168;4.124;2023-04-05T08:28:31;13.93;;;9.83;;
19535;SDS011;9913;51.168;4.124;2023-04-05T08:30:59;14.83;;;10.00;;
19535;SDS011;9913;51.168;4.124;2023-04-05T08:33:27;16.27;;;9.40;;
19535;SDS011;9913;51.168;4.124;2023-04-05T08:35:57;14.80;;;9.43;;
19535;SDS011;9913;51.168;4.124;2023-04-05T08:38:30;15.67;;;9.13;;
19535;SDS011;9913;51.168;4.124;2023-04-05T08:41:05;13.23;;;8.67;;
19535;SDS011;9913;51.168;4.124;2023-04-05T08:43:39;12.57;;;9.03;;
19535;SDS011;9913;51.168;4.124;2023-04-05T08:46:16;15.90;;;9.10;;
19535;SDS011;9913;51.168;4.124;2023-04-05T08:48:45;14.60;;;9.70;;
19535;SDS011;9913;51.168;4.124;2023-04-05T08:51:16;19.60;;;11.97;;
19535;SDS011;9913;51.168;4.124;2023-04-05T08:53:46;17.70;;;10.40;;
19535;SDS011;9913;51.168;4.124;2023-04-05T08:56:18;20.20;;;11.53;;
19535;SDS011;9913;51.168;4.124;2023-04-05T08:58:51;18.30;;;11.57;;
19535;SDS011;9913;51.168;4.124;2023-04-05T09:01:25;20.23;;;12.17;;
19535;SDS011;9913;51.168;4.124;2023-04-05T09:03:56;18.87;;;11.77;;
19535;SDS011;9913;51.168;4.124;2023-04-05T09:06:27;17.57;;;11.73;;
19535;SDS011;9913;51.168;4.124;2023-04-05T09:08:55;16.03;;;9.67;;
19535;SDS011;9913;51.168;4.124;2023-04-05T09:11:26;16.60;;;10.63;;
19535;SDS011;9913;51.168;4.124;2023-04-05T09:13:54;17.27;;;10.87;;
19535;SDS011;9913;51.168;4.124;2023-04-05T09:16:23;19.77;;;10.87;;
19535;SDS011;9913;51.168;4.124;2023-04-05T09:18:53;16.13;;;9.47;;
19535;SDS011;9913;51.168;4.124;2023-04-05T09:21:22;19.77;;;10.57;;
19535;SDS011;9913;51.168;4.124;2023-04-05T09:23:50;14.60;;;9.93;;
19535;SDS011;9913;51.168;4.124;2023-04-05T09:26:22;15.90;;;10.87;;
19535;SDS011;9913;51.168;4.124;2023-04-05T09:28:59;16.77;;;10.60;;
19535;SDS011;9913;51.168;4.124;2023-04-05T09:31:31;15.73;;;10.13;;
19535;SDS011;9913;51.168;4.124;2023-04-05T09:34:04;16.60;;;10.80;;
19535;SDS011;9913;51.168;4.124;2023-04-05T09:36:34;16.63;;;10.13;;
19535;SDS011;9913;51.168;4.124;2023-04-05T09:39:03;17.67;;;11.63;;
19535;SDS011;9913;51.168;4.124;2023-04-05T09:41:33;17.37;;;11.30;;
19535;SDS011;9913;51.168;4.124;2023-04-05T09:44:04;18.07;;;12.53;;
19535;SDS011;9913;51.168;4.124;2023-04-05T09:46:33;16.47;;;11.40;;
19535;SDS011;9913;51.168;4.124;2023-04-05T09:49:04;17.07;;;11.23;;
19535;SDS011;9913;51.168;4.124;2023-04-05T09:51:35;17.30;;;10.53;;
19535;SDS011;9913;51.168;4.124;2023-04-05T09:54:10;15.97;;;10.77;;
19535;SDS011;9913;51.168;4.124;2023-04-05T09:56:39;16.50;;;11.07;;
19535;SDS011;9913;51.168;4.124;2023-04-05T09:59:09;16.63;;;10.80;;
19535;SDS011;9913;51.168;4.124;2023-04-05T10:01:42;17.00;;;10.97;;
19535;SDS011;9913;51.168;4.124;2023-04-05T10:04:11;16.83;;;11.03;;
19535;SDS011;9913;51.168;4.124;2023-04-05T10:06:40;19.40;;;10.93;;
19535;SDS011;9913;51.168;4.124;2023-04-05T10:09:09;15.40;;;10.60;;
19535;SDS011;9913;51.168;4.124;2023-04-05T10:11:41;17.67;;;11.67;;
19535;SDS011;9913;51.168;4.124;2023-04-05T10:14:12;14.87;;;9.57;;
19535;SDS011;9913;51.168;4.124;2023-04-05T10:16:43;17.37;;;11.03;;
19535;SDS011;9913;51.168;4.124;2023-04-05T10:19:19;18.53;;;10.80;;
19535;SDS011;9913;51.168;4.124;2023-04-05T10:21:53;15.00;;;10.27;;
19535;SDS011;9913;51.168;4.124;2023-04-05T10:24:32;16.37;;;10.33;;
19535;SDS011;9913;51.168;4.124;2023-04-05T10:27:04;17.07;;;10.17;;
19535;SDS011;9913;51.168;4.124;2023-04-05T10:29:49;14.60;;;10.77;;
19535;SDS011;9913;51.168;4.124;2023-04-05T10:32:22;17.60;;;11.10;;
19535;SDS011;9913;51.168;4.124;2023-04-05T10:35:04;15.57;;;10.97;;
19535;SDS011;9913;51.168;4.124;2023-04-05T10:37:40;17.37;;;10.60;;
19535;SDS011;9913;51.168;4.124;2023-04-05T10:40:20;19.33;;;12.37;;
19535;SDS011;9913;51.168;4.124;2023-04-05T10:42:49;17.50;;;11.00;;
19535;SDS011;9913;51.168;4.124;2023-04-05T10:45:20;16.53;;;11.10;;
19535;SDS011;9913;51.168;4.124;2023-04-05T10:47:51;15.90;;;11.43;;
19535;SDS011;9913;51.168;4.124;2023-04-05T10:50:22;14.93;;;10.43;;
19535;SDS011;9913;51.168;4.124;2023-04-05T10:52:51;17.93;;;11.60;;
19535;SDS011;9913;51.168;4.124;2023-04-05T10:55:20;16.43;;;11.13;;
19535;SDS011;9913;51.168;4.124;2023-04-05T10:57:49;19.63;;;12.90;;
19535;SDS011;9913;51.168;4.124;2023-04-05T11:00:18;19.27;;;11.80;;
19535;SDS011;9913;51.168;4.124;2023-04-05T11:02:52;20.83;;;11.90;;
19535;SDS011;9913;51.168;4.124;2023-04-05T11:05:32;16.47;;;10.93;;
19535;SDS011;9913;51.168;4.124;2023-04-05T11:08:05;19.40;;;11.17;;
19535;SDS011;9913;51.168;4.124;2023-04-05T11:10:34;18.00;;;12.13;;
19535;SDS011;9913;51.168;4.124;2023-04-05T11:13:05;16.90;;;11.57;;
19535;SDS011;9913;51.168;4.124;2023-04-05T11:15:39;17.50;;;11.70;;
19535;SDS011;9913;51.168;4.124;2023-04-05T11:18:08;19.00;;;12.23;;
19535;SDS011;9913;51.168;4.124;2023-04-05T11:20:41;18.50;;;11.30;;
19535;SDS011;9913;51.168;4.124;2023-04-05T11:23:12;16.13;;;10.97;;
19535;SDS011;9913;51.168;4.124;2023-04-05T11:25:45;16.63;;;11.23;;
19535;SDS011;9913;51.168;4.124;2023-04-05T11:28:22;19.83;;;11.83;;
19535;SDS011;9913;51.168;4.124;2023-04-05T11:30:54;14.43;;;10.27;;
19535;SDS011;9913;51.168;4.124;2023-04-05T11:33:37;18.30;;;11.77;;
19535;SDS011;9913;51.168;4.124;2023-04-05T11:36:29;17.57;;;10.63;;
19535;SDS011;9913;51.168;4.124;2023-04-05T11:41:57;16.83;;;11.57;;
19535;SDS011;9913;51.168;4.124;2023-04-05T11:47:17;16.73;;;10.20;;
19535;SDS011;9913;51.168;4.124;2023-04-05T11:49:50;15.53;;;10.97;;
19535;SDS011;9913;51.168;4.124;2023-04-05T11:52:19;15.70;;;11.27;;
19535;SDS011;9913;51.168;4.124;2023-04-05T11:54:48;15.47;;;10.73;;
19535;SDS011;9913;51.168;4.124;2023-04-05T11:57:18;15.97;;;11.33;;
19535;SDS011;9913;51.168;4.124;2023-04-05T11:59:48;18.10;;;11.70;;
19535;SDS011;9913;51.168;4.124;2023-04-05T12:02:20;18.10;;;12.17;;
19535;SDS011;9913;51.168;4.124;2023-04-05T12:04:55;16.23;;;11.87;;
19535;SDS011;9913;51.168;4.124;2023-04-05T12:07:24;16.20;;;11.23;;
19535;SDS011;9913;51.168;4.124;2023-04-05T12:10:02;16.03;;;11.33;;
19535;SDS011;9913;51.168;4.124;2023-04-05T12:12:35;15.30;;;11.63;;
19535;SDS011;9913;51.168;4.124;2023-04-05T12:15:05;16.93;;;12.13;;
19535;SDS011;9913;51.168;4.124;2023-04-05T12:17:47;16.20;;;11.77;;
19535;SDS011;9913;51.168;4.124;2023-04-05T12:20:18;14.37;;;11.30;;
19535;SDS011;9913;51.168;4.124;2023-04-05T12:22:48;18.73;;;12.10;;
19535;SDS011;9913;51.168;4.124;2023-04-05T12:25:18;16.77;;;12.37;;
19535;SDS011;9913;51.168;4.124;2023-04-05T12:27:47;16.07;;;11.33;;
19535;SDS011;9913;51.168;4.124;2023-04-05T12:30:16;17.43;;;12.13;;
19535;SDS011;9913;51.168;4.124;2023-04-05T12:32:49;14.23;;;10.77;;
19535;SDS011;9913;51.168;4.124;2023-04-05T12:35:18;18.23;;;12.23;;
19535;SDS011;9913;51.168;4.124;2023-04-05T12:37:51;15.03;;;10.73;;
19535;SDS011;9913;51.168;4.124;2023-04-05T12:40:19;15.57;;;10.73;;
19535;SDS011;9913;51.168;4.124;2023-04-05T12:42:50;16.47;;;10.13;;
19535;SDS011;9913;51.168;4.124;2023-04-05T12:45:18;15.47;;;10.30;;
19535;SDS011;9913;51.168;4.124;2023-04-05T12:47:54;16.57;;;10.23;;
19535;SDS011;9913;51.168;4.124;2023-04-05T12:50:24;21.23;;;11.93;;
19535;SDS011;9913;51.168;4.124;2023-04-05T12:52:55;14.47;;;10.10;;
19535;SDS011;9913;51.168;4.124;2023-04-05T12:55:24;16.30;;;10.30;;
19535;SDS011;9913;51.168;4.124;2023-04-05T12:57:54;15.47;;;10.43;;
19535;SDS011;9913;51.168;4.124;2023-04-05T13:00:26;14.97;;;10.33;;
19535;SDS011;9913;51.168;4.124;2023-04-05T13:02:58;16.43;;;10.77;;
19535;SDS011;9913;51.168;4.124;2023-04-05T13:05:27;15.53;;;10.43;;
19535;SDS011;9913;51.168;4.124;2023-04-05T13:07:57;17.27;;;11.60;;
19535;SDS011;9913;51.168;4.124;2023-04-05T13:10:25;14.43;;;10.40;;
19535;SDS011;9913;51.168;4.124;2023-04-05T13:12:54;18.15;;;10.60;;
19535;SDS011;9913;51.168;4.124;2023-04-05T13:15:22;13.05;;;9.88;;
19535;SDS011;9913;51.168;4.124;2023-04-05T13:17:50;14.93;;;10.68;;
19535;SDS011;9913;51.168;4.124;2023-04-05T13:20:22;13.57;;;10.98;;
19535;SDS011;9913;51.168;4.124;2023-04-05T13:22:50;17.17;;;11.27;;
19535;SDS011;9913;51.168;4.124;2023-04-05T13:25:18;14.85;;;10.68;;
19535;SDS011;9913;51.168;4.124;2023-04-05T13:27:47;16.23;;;11.20;;
19535;SDS011;9913;51.168;4.124;2023-04-05T13:30:15;15.60;;;10.25;;
19535;SDS011;9913;51.168;4.124;2023-04-05T13:32:44;17.53;;;11.40;;
19535;SDS011;9913;51.168;4.124;2023-04-05T13:35:12;14.50;;;10.25;;
19535;SDS011;9913;51.168;4.124;2023-04-05T13:37:42;17.00;;;10.73;;
19535;SDS011;9913;51.168;4.124;2023-04-05T13:40:31;14.00;;;9.95;;
19535;SDS011;9913;51.168;4.124;2023-04-05T13:42:59;14.95;;;9.48;;
19535;SDS011;9913;51.168;4.124;2023-04-05T13:45:28;15.30;;;10.23;;
19535;SDS011;9913;51.168;4.124;2023-04-05T13:47:56;17.58;;;10.80;;
19535;SDS011;9913;51.168;4.124;2023-04-05T13:50:25;14.82;;;10.15;;
19535;SDS011;9913;51.168;4.124;2023-04-05T13:52:54;12.93;;;9.82;;
19535;SDS011;9913;51.168;4.124;2023-04-05T13:55:23;14.18;;;10.52;;
19535;SDS011;9913;51.168;4.124;2023-04-05T13:57:51;14.50;;;10.35;;
19535;SDS011;9913;51.168;4.124;2023-04-05T14:00:20;15.77;;;10.80;;
19535;SDS011;9913;51.168;4.124;2023-04-05T14:02:50;16.50;;;11.38;;
19535;SDS011;9913;51.168;4.124;2023-04-05T14:05:18;13.98;;;10.23;;
19535;SDS011;9913;51.168;4.124;2023-04-05T14:07:46;13.77;;;10.13;;
19535;SDS011;9913;51.168;4.124;2023-04-05T14:10:17;14.65;;;10.63;;
19535;SDS011;9913;51.168;4.124;2023-04-05T14:12:47;15.68;;;11.30;;
19535;SDS011;9913;51.168;4.124;2023-04-05T14:15:15;14.55;;;10.20;;
19535;SDS011;9913;51.168;4.124;2023-04-05T14:17:44;17.40;;;11.90;;
19535;SDS011;9913;51.168;4.124;2023-04-05T14:20:12;14.55;;;11.13;;
19535;SDS011;9913;51.168;4.124;2023-04-05T14:22:40;13.52;;;10.20;;
19535;SDS011;9913;51.168;4.124;2023-04-05T14:25:09;17.73;;;10.90;;
19535;SDS011;9913;51.168;4.124;2023-04-05T14:27:39;15.07;;;9.65;;
19535;SDS011;9913;51.168;4.124;2023-04-05T14:30:08;16.17;;;10.57;;
19535;SDS011;9913;51.168;4.124;2023-04-05T14:32:37;15.77;;;10.43;;
19535;SDS011;9913;51.168;4.124;2023-04-05T14:35:07;19.65;;;11.90;;
19535;SDS011;9913;51.168;4.124;2023-04-05T14:37:36;18.15;;;11.70;;
19535;SDS011;9913;51.168;4.124;2023-04-05T14:40:05;21.13;;;13.18;;
19535;SDS011;9913;51.168;4.124;2023-04-05T14:42:34;20.67;;;12.93;;
19535;SDS011;9913;51.168;4.124;2023-04-05T14:45:16;16.45;;;11.80;;
19535;SDS011;9913;51.168;4.124;2023-04-05T14:47:44;31.92;;;16.38;;
19535;SDS011;9913;51.168;4.124;2023-04-05T14:50:13;14.65;;;11.38;;
19535;SDS011;9913;51.168;4.124;2023-04-05T14:52:41;26.38;;;14.55;;
19535;SDS011;9913;51.168;4.124;2023-04-05T14:55:11;20.55;;;12.82;;
19535;SDS011;9913;51.168;4.124;2023-04-05T14:57:39;15.73;;;13.13;;
19535;SDS011;9913;51.168;4.124;2023-04-05T15:00:08;17.77;;;13.25;;
19535;SDS011;9913;51.168;4.124;2023-04-05T15:02:39;15.52;;;11.85;;
19535;SDS011;9913;51.168;4.124;2023-04-05T15:05:08;16.55;;;12.75;;
19535;SDS011;9913;51.168;4.124;2023-04-05T15:07:36;14.15;;;11.55;;
19535;SDS011;9913;51.168;4.124;2023-04-05T15:10:05;19.27;;;13.30;;
19535;SDS011;9913;51.168;4.124;2023-04-05T15:12:34;15.38;;;12.75;;